Time;durP1;ratioP1;P1;durP2;ratioP2;P2;SDS_P1;SDS_P2;PMS_P1;PMS_P2;Temp;Humidity;BMP_temperature;BMP_pressure;BME280_temperature;BME280_humidity;BME280_pressure;Samples;Min_cycle;Max_cycle;Signal;HPM_P1;HPM_P2
2024/03/24 00:01:49;;;;;;;14.17;2.33;;;5.60;99.90;;;;;;5035039;28;20431;-86
2024/03/24 00:04:15;;;;;;;12.90;2.07;;;5.60;99.90;;;;;;5053143;28;20164;-86
2024/03/24 00:06:41;;;;;;;14.60;2.58;;;5.60;99.90;;;;;;5035055;28;20196;-86
2024/03/24 00:09:09;;;;;;;16.80;2.30;;;5.60;99.90;;;;;;5053144;28;20678;-86
2024/03/24 00:11:34;;;;;;;16.17;2.20;;;5.50;99.90;;;;;;5034773;28;20227;-86
2024/03/24 00:14:00;;;;;;;13.23;2.30;;;5.50;99.90;;;;;;5052725;28;20551;-86
2024/03/24 00:16:28;;;;;;;16.23;3.20;;;5.50;99.90;;;;;;5055501;28;20406;-86
2024/03/24 00:18:54;;;;;;;15.73;2.30;;;5.50;99.90;;;;;;5038738;28;20243;-86
2024/03/24 00:21:19;;;;;;;15.10;2.40;;;5.40;99.90;;;;;;5039060;28;20271;-86
2024/03/24 00:23:45;;;;;;;14.70;2.27;;;5.30;99.90;;;;;;5056763;28;20168;-86
2024/03/24 00:26:10;;;;;;;14.00;2.73;;;5.30;99.90;;;;;;5056686;28;20184;-86
2024/03/24 00:28:36;;;;;;;14.23;2.53;;;5.40;99.90;;;;;;5039063;28;20177;-86
2024/03/24 00:31:02;;;;;;;16.17;2.83;;;5.40;99.90;;;;;;5038901;28;20197;-86
2024/03/24 00:33:27;;;;;;;14.03;2.97;;;5.50;99.90;;;;;;5056506;28;20279;-86
2024/03/24 00:35:53;;;;;;;14.97;2.93;;;5.50;99.90;;;;;;5056976;28;20170;-86
2024/03/24 00:38:19;;;;;;;16.10;2.80;;;5.60;99.90;;;;;;5056773;28;20193;-86
2024/03/24 00:40:44;;;;;;;20.23;2.97;;;5.50;99.90;;;;;;5038606;28;20193;-86
2024/03/24 00:43:10;;;;;;;17.83;3.07;;;5.60;99.90;;;;;;5056743;28;20169;-86
2024/03/24 00:45:38;;;;;;;14.17;2.20;;;5.60;99.90;;;;;;5056406;28;20579;-86
2024/03/24 00:48:04;;;;;;;16.67;3.10;;;5.60;99.90;;;;;;5056545;28;20165;-86
2024/03/24 00:50:30;;;;;;;14.23;3.07;;;5.60;99.90;;;;;;5038336;28;20546;-86
2024/03/24 00:52:55;;;;;;;15.90;3.20;;;5.50;99.90;;;;;;5039345;28;20403;-86
2024/03/24 00:55:21;;;;;;;13.50;2.37;;;5.50;99.90;;;;;;5056395;28;20169;-86
2024/03/24 00:57:47;;;;;;;14.60;2.73;;;5.50;99.90;;;;;;5038649;28;20209;-85
2024/03/24 01:00:13;;;;;;;14.60;2.40;;;5.50;99.90;;;;;;5038959;28;20184;-86
2024/03/24 01:02:38;;;;;;;14.95;2.20;;;5.60;99.90;;;;;;5056354;28;20661;-85
2024/03/24 01:05:04;;;;;;;13.27;2.00;;;5.60;99.90;;;;;;5056366;28;20215;-86
2024/03/24 01:07:30;;;;;;;14.57;2.45;;;5.60;99.90;;;;;;5038484;28;20170;-86
2024/03/24 01:09:56;;;;;;;16.95;2.70;;;5.50;99.90;;;;;;5056360;28;20157;-86
2024/03/24 01:12:24;;;;;;;13.53;2.50;;;5.50;99.90;;;;;;5055791;28;20195;-86
2024/03/24 01:14:50;;;;;;;18.73;3.63;;;5.40;99.90;;;;;;5038090;28;20469;-87
2024/03/24 01:17:17;;;;;;;16.48;3.00;;;5.50;99.90;;;;;;5038064;28;20197;-86
2024/03/24 01:19:42;;;;;;;14.55;2.70;;;5.50;99.90;;;;;;5037829;28;20519;-86
2024/03/24 01:22:08;;;;;;;14.73;3.30;;;5.50;99.90;;;;;;5055829;28;20277;-86
2024/03/24 01:24:34;;;;;;;18.50;2.67;;;5.50;99.90;;;;;;5055723;28;20171;-86
2024/03/24 01:27:00;;;;;;;14.03;2.20;;;5.60;99.90;;;;;;5055038;28;20170;-86
2024/03/24 01:29:25;;;;;;;13.30;1.70;;;5.60;99.90;;;;;;5037723;28;20958;-86
2024/03/24 01:31:51;;;;;;;14.60;2.63;;;5.60;99.90;;;;;;5055471;28;20503;-86
2024/03/24 01:34:17;;;;;;;16.10;2.90;;;5.60;99.90;;;;;;5037619;28;20901;-86
2024/03/24 01:36:42;;;;;;;15.33;3.20;;;5.50;99.90;;;;;;5055401;28;20169;-86
2024/03/24 01:39:11;;;;;;;14.90;2.50;;;5.50;99.90;;;;;;5037445;28;20239;-86
2024/03/24 01:41:36;;;;;;;15.45;2.70;;;5.50;99.90;;;;;;5055261;28;20185;-86
2024/03/24 01:44:02;;;;;;;15.53;2.90;;;5.50;99.90;;;;;;5037345;28;20197;-86
2024/03/24 01:46:29;;;;;;;16.70;3.10;;;5.40;99.90;;;;;;5055235;28;20161;-86
2024/03/24 01:48:55;;;;;;;18.58;3.70;;;5.50;99.90;;;;;;5037224;28;20712;-87
2024/03/24 01:51:22;;;;;;;15.77;3.57;;;5.50;99.90;;;;;;5055032;28;20181;-87
2024/03/24 01:53:49;;;;;;;20.48;3.20;;;5.50;99.90;;;;;;5055027;28;20404;-86
2024/03/24 01:56:15;;;;;;;18.05;3.00;;;5.50;99.90;;;;;;5055147;28;20192;-86
2024/03/24 01:58:44;;;;;;;20.05;3.03;;;5.50;99.90;;;;;;5054898;28;20201;-86
2024/03/24 02:01:11;;;;;;;15.40;3.47;;;5.50;99.90;;;;;;5037002;28;20612;-86
2024/03/24 02:03:37;;;;;;;15.80;3.45;;;5.50;99.90;;;;;;5054946;28;20212;-86
2024/03/24 02:06:06;;;;;;;17.60;3.58;;;5.60;99.90;;;;;;5055025;28;20180;-86
2024/03/24 02:08:32;;;;;;;16.25;3.95;;;5.60;99.90;;;;;;5037062;28;20643;-87
2024/03/24 02:10:59;;;;;;;16.75;3.50;;;5.60;99.90;;;;;;5054649;28;20277;-86
2024/03/24 02:13:26;;;;;;;15.00;3.22;;;5.60;99.90;;;;;;5036892;28;20173;-86
2024/03/24 02:15:53;;;;;;;16.48;3.70;;;5.60;99.90;;;;;;5055100;28;20165;-86
2024/03/24 02:18:20;;;;;;;16.13;3.70;;;5.60;99.90;;;;;;5054841;28;20193;-87
2024/03/24 02:20:45;;;;;;;15.25;3.35;;;5.50;99.90;;;;;;5055017;28;20601;-86
2024/03/24 02:23:11;;;;;;;14.93;3.33;;;5.50;99.90;;;;;;5057631;28;20165;-86
2024/03/24 02:25:37;;;;;;;14.60;3.27;;;5.40;99.90;;;;;;5056833;28;20295;-86
2024/03/24 02:28:02;;;;;;;17.57;3.80;;;5.40;99.90;;;;;;5055463;28;20196;-86
2024/03/24 02:30:28;;;;;;;23.87;5.00;;;5.40;99.90;;;;;;5054897;28;20219;-87
2024/03/24 02:32:54;;;;;;;16.07;4.43;;;5.40;99.90;;;;;;5037552;28;20469;-86
2024/03/24 02:35:20;;;;;;;15.93;4.03;;;5.40;99.90;;;;;;5056115;28;20169;-86
2024/03/24 02:37:45;;;;;;;16.70;4.40;;;5.40;99.90;;;;;;5055249;28;20239;-87
2024/03/24 02:40:11;;;;;;;17.97;4.80;;;5.40;99.90;;;;;;5055688;28;20165;-87
2024/03/24 02:42:38;;;;;;;18.92;5.00;;;5.50;99.90;;;;;;5055771;28;20603;-86
2024/03/24 02:45:06;;;;;;;16.48;4.85;;;5.50;99.90;;;;;;5056138;28;20215;-86
2024/03/24 02:47:32;;;;;;;17.10;4.05;;;5.50;99.90;;;;;;5055492;28;20165;-86
2024/03/24 02:50:01;;;;;;;16.85;4.35;;;5.60;99.90;;;;;;5038600;28;20542;-86
2024/03/24 02:52:26;;;;;;;18.83;4.13;;;5.60;99.90;;;;;;5055875;28;20198;-86
2024/03/24 02:54:52;;;;;;;15.93;4.17;;;5.60;99.90;;;;;;5055981;28;20650;-86
2024/03/24 02:57:17;;;;;;;20.20;4.40;;;5.70;99.90;;;;;;5056123;28;20671;-86
2024/03/24 02:59:43;;;;;;;19.10;3.93;;;5.70;99.90;;;;;;5056089;28;20259;-86
2024/03/24 03:02:10;;;;;;;16.70;3.20;;;5.70;99.90;;;;;;5055947;28;20178;-87
2024/03/24 03:04:36;;;;;;;16.60;3.47;;;5.70;99.90;;;;;;5056022;28;20165;-86
2024/03/24 03:07:02;;;;;;;15.13;3.50;;;5.70;99.90;;;;;;5057609;28;20177;-86
2024/03/24 03:09:28;;;;;;;15.00;3.77;;;5.70;99.90;;;;;;5057719;28;20403;-86
2024/03/24 03:11:53;;;;;;;16.03;3.00;;;5.80;99.90;;;;;;5057337;28;20185;-86
2024/03/24 03:14:20;;;;;;;16.03;3.37;;;5.70;99.90;;;;;;5058966;28;20171;-86
2024/03/24 03:16:51;;;;;;;16.77;3.58;;;5.70;99.90;;;;;;5060102;28;20427;-86
2024/03/24 03:19:16;;;;;;;17.40;3.60;;;5.70;99.90;;;;;;5042113;28;20197;-86
2024/03/24 03:21:42;;;;;;;14.30;2.70;;;5.70;99.90;;;;;;5059873;28;20196;-86
2024/03/24 03:24:08;;;;;;;14.80;2.70;;;5.80;99.90;;;;;;5059284;28;20201;-85
2024/03/24 03:26:34;;;;;;;15.97;2.93;;;5.80;99.90;;;;;;5059008;28;20153;-86
2024/03/24 03:28:59;;;;;;;16.10;2.90;;;5.80;99.90;;;;;;5060271;28;20399;-86
2024/03/24 03:31:25;;;;;;;13.50;2.53;;;5.80;99.90;;;;;;5061725;28;20195;-86
2024/03/24 03:33:50;;;;;;;16.53;3.20;;;5.80;99.90;;;;;;5061061;28;20176;-86
2024/03/24 03:36:16;;;;;;;14.10;2.80;;;5.70;99.90;;;;;;5060347;28;20165;-86
2024/03/24 03:38:42;;;;;;;16.07;2.87;;;5.70;99.90;;;;;;5058287;28;20318;-87
2024/03/24 03:41:07;;;;;;;13.67;2.37;;;5.70;99.90;;;;;;5056819;28;20550;-86
2024/03/24 03:43:33;;;;;;;15.37;2.40;;;5.70;99.90;;;;;;5054720;28;20374;-86
2024/03/24 03:45:58;;;;;;;13.13;1.83;;;5.70;99.90;;;;;;5036176;28;20646;-86
2024/03/24 03:48:24;;;;;;;15.67;2.30;;;5.70;99.90;;;;;;5053770;28;20169;-86
2024/03/24 03:50:50;;;;;;;17.53;2.30;;;5.60;99.90;;;;;;5035394;28;20554;-86
2024/03/24 03:53:22;;;;;;;13.67;2.10;;;5.60;99.90;;;;;;5053325;28;20220;-86
2024/03/24 03:55:54;;;;;;;13.27;2.40;;;5.60;99.90;;;;;;5053472;28;20145;-87
2024/03/24 03:58:20;;;;;;;14.10;2.35;;;5.50;99.90;;;;;;5035107;28;20212;-86
2024/03/24 04:00:47;;;;;;;13.25;2.10;;;5.50;99.90;;;;;;5035367;28;20188;-86
2024/03/24 04:03:13;;;;;;;13.05;1.90;;;5.50;99.90;;;;;;5035578;28;20244;-86
2024/03/24 04:05:40;;;;;;;13.53;2.10;;;5.50;99.90;;;;;;5053294;28;20192;-86
2024/03/24 04:08:09;;;;;;;14.48;2.38;;;5.50;99.90;;;;;;5053626;28;20412;-85
2024/03/24 04:10:37;;;;;;;14.98;2.50;;;5.50;99.90;;;;;;5052947;28;20172;-87
2024/03/24 04:13:06;;;;;;;13.70;2.00;;;5.50;99.90;;;;;;5053227;28;20162;-86
2024/03/24 04:15:32;;;;;;;13.52;2.60;;;5.50;99.90;;;;;;5053378;28;20162;-86
2024/03/24 04:17:58;;;;;;;12.80;1.50;;;5.50;99.90;;;;;;5053244;28;20662;-86
2024/03/24 04:20:23;;;;;;;15.93;2.20;;;5.50;99.90;;;;;;5053428;28;20892;-86
2024/03/24 04:22:52;;;;;;;14.83;2.10;;;5.50;99.90;;;;;;5053447;28;20943;-86
2024/03/24 04:25:18;;;;;;;14.27;1.90;;;5.50;99.90;;;;;;5053166;28;20172;-86
2024/03/24 04:27:44;;;;;;;13.27;2.00;;;5.40;99.90;;;;;;5053362;28;20247;-86
2024/03/24 04:40:08;;;;;;;16.65;2.30;;;5.50;99.90;;;;;;5204472;22;20744;-86
2024/03/24 04:42:34;;;;;;;14.55;2.50;;;5.40;99.90;;;;;;5106049;22;20351;-86
2024/03/24 04:45:01;;;;;;;14.63;2.20;;;5.40;99.90;;;;;;5033321;28;20162;-86
2024/03/24 04:47:30;;;;;;;15.23;2.08;;;5.50;99.90;;;;;;5015616;28;20554;-86
2024/03/24 04:49:56;;;;;;;13.10;1.80;;;5.40;99.90;;;;;;5032730;28;20162;-87
2024/03/24 04:52:22;;;;;;;15.67;1.97;;;5.50;99.90;;;;;;5032785;28;20182;-87
2024/03/24 04:54:47;;;;;;;14.38;2.63;;;5.50;99.90;;;;;;5015375;28;20174;-87
2024/03/24 04:57:13;;;;;;;14.87;2.67;;;5.50;99.90;;;;;;5014864;28;20202;-87
2024/03/24 04:59:39;;;;;;;15.70;2.50;;;5.50;99.90;;;;;;5032534;28;20158;-88
2024/03/24 05:02:04;;;;;;;14.57;3.33;;;5.50;99.90;;;;;;5033009;28;20678;-88
2024/03/24 05:04:30;;;;;;;14.47;2.40;;;5.50;99.90;;;;;;5036016;28;20213;-88
2024/03/24 05:06:59;;;;;;;16.45;2.80;;;5.40;99.90;;;;;;5018423;28;20170;-87
2024/03/24 05:09:25;;;;;;;15.70;3.05;;;5.40;99.90;;;;;;5036881;28;20158;-87
2024/03/24 05:11:51;;;;;;;16.77;3.25;;;5.40;99.90;;;;;;5036336;28;20607;-87
2024/03/24 05:14:17;;;;;;;15.47;2.93;;;5.30;99.90;;;;;;5036508;28;20245;-87
2024/03/24 05:16:43;;;;;;;13.20;2.50;;;5.40;99.90;;;;;;5019053;28;20594;-87
2024/03/24 05:19:09;;;;;;;16.53;3.00;;;5.30;99.90;;;;;;5036408;28;20189;-87
2024/03/24 05:21:37;;;;;;;15.57;2.75;;;5.40;99.90;;;;;;5036467;28;20519;-87
2024/03/24 05:24:04;;;;;;;17.40;2.70;;;5.40;99.90;;;;;;5019351;28;20166;-87
2024/03/24 05:26:30;;;;;;;14.98;2.55;;;5.40;99.90;;;;;;5037018;28;20170;-87
2024/03/24 05:28:56;;;;;;;16.80;3.10;;;5.40;99.90;;;;;;5018351;28;20180;-87
2024/03/24 05:31:22;;;;;;;18.93;2.80;;;5.40;99.90;;;;;;5035755;28;20430;-87
2024/03/24 05:33:48;;;;;;;15.23;3.00;;;5.40;99.90;;;;;;5035971;28;20416;-87
2024/03/24 05:36:14;;;;;;;16.05;2.83;;;5.50;99.90;;;;;;5018242;28;20173;-87
2024/03/24 05:38:39;;;;;;;15.73;2.63;;;5.60;99.90;;;;;;5018261;28;20190;-88
2024/03/24 05:41:06;;;;;;;15.33;3.00;;;5.50;99.90;;;;;;5035868;28;20185;-87
2024/03/24 05:43:36;;;;;;;13.88;2.38;;;5.60;99.90;;;;;;5035281;28;20240;-88
2024/03/24 05:46:04;;;;;;;14.95;2.72;;;5.60;99.90;;;;;;5035299;28;20162;-88
2024/03/24 05:48:29;;;;;;;15.93;3.40;;;5.60;99.90;;;;;;5017400;28;20209;-88
2024/03/24 05:50:59;;;;;;;16.03;3.43;;;5.50;99.90;;;;;;5017454;28;20213;-87
2024/03/24 05:53:25;;;;;;;18.30;4.97;;;5.60;99.90;;;;;;5035854;28;20693;-87
2024/03/24 05:55:51;;;;;;;17.33;2.80;;;5.70;99.90;;;;;;5017961;28;20178;-87
2024/03/24 05:58:20;;;;;;;18.57;4.17;;;5.70;99.90;;;;;;5017477;28;20814;-88
2024/03/24 06:00:47;;;;;;;17.65;3.35;;;5.70;99.90;;;;;;5035023;28;20424;-87
2024/03/24 06:03:13;;;;;;;18.90;4.07;;;5.80;99.90;;;;;;5035391;28;20166;-87
2024/03/24 06:05:48;;;;;;;20.67;3.70;;;5.90;99.90;;;;;;5017497;28;20193;-87
2024/03/24 06:08:14;;;;;;;16.65;3.42;;;5.90;99.90;;;;;;5035751;28;20153;-87
2024/03/24 06:10:47;;;;;;;19.53;4.23;;;5.90;99.90;;;;;;5017739;28;20573;-87
2024/03/24 06:13:12;;;;;;;16.15;3.28;;;5.90;99.90;;;;;;5017868;28;20427;-87
2024/03/24 06:15:39;;;;;;;24.20;4.30;;;6.00;99.90;;;;;;5036081;28;20647;-87
2024/03/24 06:18:06;;;;;;;20.95;4.70;;;6.00;99.90;;;;;;5035092;28;20181;-87
2024/03/24 06:20:33;;;;;;;20.48;3.85;;;6.00;99.90;;;;;;5035193;28;20166;-87
2024/03/24 06:23:01;;;;;;;18.38;3.58;;;6.10;99.90;;;;;;5016740;28;20170;-87
2024/03/24 06:25:27;;;;;;;15.43;3.22;;;6.10;99.90;;;;;;5034921;28;20166;-87
2024/03/24 06:27:52;;;;;;;17.73;3.00;;;6.10;99.90;;;;;;5034814;28;20219;-87
2024/03/24 06:30:18;;;;;;;16.40;4.40;;;6.20;99.90;;;;;;5016749;28;20181;-86
2024/03/24 06:32:43;;;;;;;17.70;3.57;;;6.20;99.90;;;;;;5016818;28;20240;-86
2024/03/24 06:35:11;;;;;;;20.20;4.43;;;6.20;99.90;;;;;;5034616;28;20220;-87
2024/03/24 06:37:38;;;;;;;21.10;3.78;;;6.20;99.90;;;;;;5034712;28;20185;-87
2024/03/24 06:40:07;;;;;;;18.77;3.97;;;6.20;99.90;;;;;;5016600;28;20197;-87
2024/03/24 06:42:35;;;;;;;17.63;3.50;;;6.30;99.90;;;;;;5016473;28;20296;-86
2024/03/24 06:45:08;;;;;;;16.27;3.33;;;6.30;99.90;;;;;;5034421;28;20252;-86
2024/03/24 06:47:37;;;;;;;21.60;5.47;;;6.40;99.90;;;;;;5016654;28;20162;-86
2024/03/24 06:50:04;;;;;;;23.33;3.90;;;6.40;99.90;;;;;;5016388;28;20173;-86
2024/03/24 06:52:30;;;;;;;18.15;3.63;;;6.50;99.90;;;;;;5016619;28;20209;-86
2024/03/24 06:54:56;;;;;;;25.03;4.40;;;6.60;99.90;;;;;;5016403;28;20188;-86
2024/03/24 06:57:21;;;;;;;15.50;3.70;;;6.60;99.90;;;;;;5034542;28;20197;-87
2024/03/24 06:59:47;;;;;;;16.47;3.90;;;6.70;99.90;;;;;;5034258;28;20169;-87
2024/03/24 07:02:14;;;;;;;17.00;3.87;;;6.70;99.90;;;;;;5034209;28;20190;-87
2024/03/24 07:04:39;;;;;;;17.02;4.55;;;6.70;99.90;;;;;;5033991;28;20408;-86
2024/03/24 07:07:05;;;;;;;26.83;3.90;;;6.70;99.90;;;;;;5016184;28;20542;-86
2024/03/24 07:09:31;;;;;;;18.23;3.40;;;6.70;99.90;;;;;;5034421;28;20162;-86
2024/03/24 07:11:56;;;;;;;23.43;3.73;;;6.70;99.90;;;;;;5033929;28;20602;-87
2024/03/24 07:14:22;;;;;;;23.17;4.50;;;6.80;99.90;;;;;;5016818;28;20193;-86
2024/03/24 07:16:48;;;;;;;17.37;3.37;;;6.70;99.90;;;;;;5035213;28;20577;-85
2024/03/24 07:19:13;;;;;;;16.30;3.57;;;6.70;99.90;;;;;;5034626;28;20667;-86
2024/03/24 07:21:39;;;;;;;17.33;3.57;;;6.70;99.90;;;;;;5035223;28;20182;-86
2024/03/24 07:24:05;;;;;;;22.20;4.13;;;6.70;99.90;;;;;;5017799;28;20180;-85
2024/03/24 07:26:31;;;;;;;20.60;4.50;;;6.70;99.90;;;;;;5034462;28;20249;-85
2024/03/24 07:28:56;;;;;;;14.10;2.97;;;6.70;99.90;;;;;;5016859;28;20256;-86
2024/03/24 07:31:22;;;;;;;16.20;2.83;;;6.70;99.90;;;;;;5016773;28;20264;-85
2024/03/24 07:33:48;;;;;;;17.43;3.20;;;6.70;99.90;;;;;;5017183;28;20331;-87
2024/03/24 07:36:13;;;;;;;22.83;3.07;;;6.70;99.90;;;;;;5034932;28;20181;-87
2024/03/24 07:38:39;;;;;;;14.17;3.00;;;6.70;99.90;;;;;;5019021;28;20193;-87
2024/03/24 07:41:05;;;;;;;15.63;2.70;;;6.70;99.90;;;;;;5040313;28;20550;-87
2024/03/24 07:43:31;;;;;;;20.05;3.22;;;6.70;99.90;;;;;;5038819;28;20656;-87
2024/03/24 07:45:57;;;;;;;13.77;2.10;;;6.50;99.90;;;;;;5039869;28;20161;-87
2024/03/24 07:48:23;;;;;;;14.40;2.30;;;6.50;99.90;;;;;;5040111;28;20413;-86
2024/03/24 07:50:48;;;;;;;17.00;2.57;;;6.40;99.90;;;;;;5038944;28;20264;-86
2024/03/24 07:53:14;;;;;;;13.80;2.10;;;6.40;99.90;;;;;;5040236;28;20169;-87
2024/03/24 07:55:46;;;;;;;16.37;2.57;;;6.40;99.90;;;;;;5021399;28;20174;-87
2024/03/24 07:58:11;;;;;;;14.75;2.58;;;6.40;99.90;;;;;;5019114;28;20189;-87
2024/03/24 08:00:37;;;;;;;15.70;2.50;;;6.40;99.90;;;;;;5036345;28;20165;-87
2024/03/24 08:03:04;;;;;;;15.53;3.10;;;6.40;99.90;;;;;;5035306;28;20161;-87
2024/03/24 08:05:30;;;;;;;13.95;1.95;;;6.50;99.90;;;;;;5016970;28;20938;-86
2024/03/24 08:07:55;;;;;;;14.67;2.30;;;6.60;99.90;;;;;;5017195;28;20180;-87
2024/03/24 08:10:21;;;;;;;15.60;1.90;;;6.70;99.90;;;;;;5035473;28;20174;-87
2024/03/24 08:12:47;;;;;;;13.70;1.90;;;6.80;99.90;;;;;;5035344;28;20563;-87
2024/03/24 08:15:13;;;;;;;14.23;1.83;;;6.80;99.90;;;;;;5015630;28;20181;-87
2024/03/24 08:17:39;;;;;;;14.10;2.50;;;6.90;99.90;;;;;;5033343;28;20189;-87
2024/03/24 08:20:06;;;;;;;16.10;2.47;;;6.90;99.90;;;;;;5033398;28;20447;-87
2024/03/24 08:22:32;;;;;;;13.55;1.85;;;6.90;99.90;;;;;;5033544;28;20181;-87
2024/03/24 08:24:58;;;;;;;14.27;2.05;;;6.90;99.90;;;;;;5015593;28;20257;-87
2024/03/24 08:27:23;;;;;;;13.53;1.80;;;6.90;99.90;;;;;;5034336;28;20197;-87
2024/03/24 08:29:49;;;;;;;12.43;1.47;;;7.10;99.90;;;;;;5017266;28;20189;-87
2024/03/24 08:32:16;;;;;;;14.50;2.57;;;7.00;99.90;;;;;;5015395;28;20190;-87
2024/03/24 08:34:43;;;;;;;13.70;1.95;;;7.00;99.90;;;;;;5033808;28;20170;-87
2024/03/24 08:37:08;;;;;;;14.80;2.50;;;7.00;99.90;;;;;;5034782;28;20170;-87
2024/03/24 08:39:34;;;;;;;14.23;2.40;;;7.00;99.90;;;;;;5019435;28;20177;-86
2024/03/24 08:42:00;;;;;;;15.00;2.37;;;7.00;99.90;;;;;;5018683;28;20280;-87
2024/03/24 08:44:26;;;;;;;12.90;1.70;;;7.10;99.90;;;;;;5036743;28;20158;-87
2024/03/24 08:46:52;;;;;;;14.52;2.15;;;7.10;99.90;;;;;;5019577;28;20584;-86
2024/03/24 08:49:21;;;;;;;12.27;1.40;;;7.20;99.90;;;;;;5037269;28;20166;-86
2024/03/24 08:51:49;;;;;;;12.80;1.63;;;7.20;99.90;;;;;;5018732;28;21022;-86
2024/03/24 08:54:16;;;;;;;13.50;1.77;;;7.20;99.90;;;;;;5018676;28;20174;-87
2024/03/24 08:56:45;;;;;;;15.32;2.10;;;7.30;99.90;;;;;;5019738;28;20200;-86
2024/03/24 08:59:11;;;;;;;14.57;2.25;;;7.20;99.90;;;;;;5036602;28;20288;-87
2024/03/24 09:01:36;;;;;;;15.53;1.97;;;7.30;99.90;;;;;;5036349;28;20259;-87
2024/03/24 09:04:02;;;;;;;16.93;2.10;;;7.30;99.90;;;;;;5036733;28;20889;-86
2024/03/24 09:06:28;;;;;;;14.60;2.20;;;7.30;99.90;;;;;;5036387;28;20585;-86
2024/03/24 09:08:53;;;;;;;15.40;2.43;;;7.30;99.90;;;;;;5018708;28;20222;-85
2024/03/24 09:11:19;;;;;;;15.77;2.60;;;7.40;99.90;;;;;;5036352;28;20686;-86
2024/03/24 09:13:45;;;;;;;16.60;2.97;;;7.60;99.90;;;;;;5036521;28;20216;-86
2024/03/24 09:16:10;;;;;;;16.10;2.93;;;7.70;99.90;;;;;;5018686;28;20607;-85
2024/03/24 09:18:36;;;;;;;20.77;3.03;;;7.90;99.90;;;;;;5018588;28;20602;-86
2024/03/24 09:21:05;;;;;;;20.10;2.60;;;8.00;99.90;;;;;;5018625;28;20481;-83
2024/03/24 09:23:34;;;;;;;16.92;3.15;;;8.10;99.90;;;;;;5036879;28;20154;-86
2024/03/24 09:26:00;;;;;;;16.63;2.33;;;8.20;99.90;;;;;;5036445;28;20162;-86
2024/03/24 09:28:26;;;;;;;15.73;2.27;;;8.30;99.90;;;;;;5018505;28;20173;-86
2024/03/24 09:30:58;;;;;;;19.83;2.50;;;8.30;99.90;;;;;;5036489;28;20428;-85
2024/03/24 09:33:24;;;;;;;15.13;2.58;;;8.40;99.90;;;;;;5036265;28;20162;-86
2024/03/24 09:35:49;;;;;;;14.80;2.10;;;8.40;99.90;;;;;;5018074;28;20654;-86
2024/03/24 09:38:15;;;;;;;13.30;1.80;;;8.50;99.90;;;;;;5036618;28;20272;-85
2024/03/24 09:40:41;;;;;;;17.87;2.60;;;8.60;99.90;;;;;;5035933;28;20232;-85
2024/03/24 09:43:08;;;;;;;13.18;1.50;;;8.50;97.20;;;;;;5018085;28;20324;-86
2024/03/24 09:45:34;;;;;;;15.23;2.05;;;8.50;98.40;;;;;;5018532;28;20579;-86
2024/03/24 09:48:02;;;;;;;20.85;3.53;;;8.50;97.30;;;;;;5018443;28;20174;-85
2024/03/24 09:50:31;;;;;;;17.73;2.90;;;8.50;78.20;;;;;;5019788;28;20184;-86
2024/03/24 09:52:59;;;;;;;23.00;2.70;;;8.50;72.20;;;;;;5018729;28;20170;-86
2024/03/24 09:55:29;;;;;;;23.98;3.28;;;8.50;57.20;;;;;;5035898;28;20166;-86
2024/03/24 09:57:55;;;;;;;15.63;3.50;;;8.60;70.00;;;;;;5019152;28;20193;-86
2024/03/24 10:00:24;;;;;;;14.95;3.33;;;8.80;55.70;;;;;;5019191;28;20223;-86
2024/03/24 10:02:50;;;;;;;19.27;3.85;;;8.70;58.80;;;;;;5035334;28;20158;-86
2024/03/24 10:05:25;;;;;;;15.30;3.28;;;8.80;64.40;;;;;;5017807;28;20521;-86
2024/03/24 10:07:51;;;;;;;18.17;3.67;;;8.80;53.40;;;;;;5035594;28;20184;-85
2024/03/24 10:10:17;;;;;;;17.43;3.10;;;8.90;50.50;;;;;;5035997;28;20161;-86
2024/03/24 10:12:52;;;;;;;20.90;2.77;;;8.80;45.80;;;;;;5018222;28;20671;-86
2024/03/24 10:15:22;;;;;;;15.48;2.90;;;8.90;41.90;;;;;;5017930;28;20539;-86
2024/03/24 10:18:00;;;;;;;17.50;3.30;;;9.20;50.90;;;;;;5035859;28;20615;-86
2024/03/24 10:20:25;;;;;;;25.45;7.20;;;9.30;38.80;;;;;;5018778;28;20619;-86
2024/03/24 10:22:56;;;;;;;19.63;2.87;;;9.40;21.50;;;;;;5036627;28;20170;-87
2024/03/24 10:25:29;;;;;;;18.05;3.72;;;9.50;23.00;;;;;;5038589;28;20165;-87
2024/03/24 10:27:56;;;;;;;19.80;3.30;;;9.60;1.00;;;;;;5039734;28;20150;-86
2024/03/24 10:30:22;;;;;;;16.27;2.90;;;9.70;1.00;;;;;;5040492;28;20191;-86
2024/03/24 10:32:48;;;;;;;19.88;3.05;;;9.70;1.00;;;;;;5021994;28;20185;-86
2024/03/24 10:35:14;;;;;;;14.13;2.58;;;9.70;1.00;;;;;;5039787;28;20173;-86
2024/03/24 10:37:40;;;;;;;15.90;2.50;;;9.70;1.00;;;;;;5021234;28;20189;-86
2024/03/24 10:40:16;;;;;;;16.85;2.80;;;9.70;1.00;;;;;;5021382;28;20166;-87
2024/03/24 10:42:52;;;;;;;16.98;2.50;;;9.90;1.00;;;;;;5038266;28;20205;-86
2024/03/24 10:45:25;;;;;;;16.05;3.35;;;9.90;1.00;;;;;;5021508;28;20173;-86
2024/03/24 10:48:14;;;;;;;14.98;2.15;;;9.80;1.00;;;;;;5022618;28;20181;-87
2024/03/24 10:50:44;;;;;;;23.30;2.95;;;9.70;1.00;;;;;;5022578;28;20170;-86
2024/03/24 10:53:14;;;;;;;16.02;2.28;;;9.80;1.00;;;;;;5038901;28;20162;-86
2024/03/24 10:55:41;;;;;;;15.13;3.38;;;10.00;1.00;;;;;;5022893;28;20562;-86
2024/03/24 10:58:08;;;;;;;14.27;2.60;;;10.40;1.00;;;;;;5021914;28;20247;-86
2024/03/24 11:00:34;;;;;;;16.92;2.80;;;10.60;1.00;;;;;;5038051;28;20172;-86
2024/03/24 11:03:00;;;;;;;15.20;2.70;;;10.70;1.00;;;;;;5039628;28;20240;-85
2024/03/24 11:05:27;;;;;;;21.00;2.53;;;10.90;1.00;;;;;;5040393;28;20192;-87
2024/03/24 11:07:53;;;;;;;15.85;2.50;;;10.70;1.00;;;;;;5041548;28;20176;-86
2024/03/24 11:10:20;;;;;;;18.23;2.75;;;10.60;1.00;;;;;;5023741;28;20536;-86
2024/03/24 11:12:47;;;;;;;16.50;2.47;;;10.60;1.00;;;;;;5041146;28;20631;-86
2024/03/24 11:15:17;;;;;;;16.35;2.50;;;10.40;1.00;;;;;;5022662;28;20173;-87
2024/03/24 11:17:43;;;;;;;15.00;2.20;;;10.30;1.00;;;;;;5040871;28;20184;-86
2024/03/24 11:20:17;;;;;;;20.57;2.40;;;10.30;1.00;;;;;;5041181;28;20158;-86
2024/03/24 11:22:44;;;;;;;16.73;2.70;;;10.50;1.00;;;;;;5040670;28;20203;-86
2024/03/24 11:25:10;;;;;;;14.23;2.42;;;10.60;1.00;;;;;;5041344;28;20153;-87
2024/03/24 11:27:40;;;;;;;14.53;2.00;;;10.70;1.00;;;;;;5041096;28;20188;-86
2024/03/24 11:30:06;;;;;;;16.63;2.75;;;10.90;1.00;;;;;;5040981;28;20436;-87
2024/03/24 11:32:55;;;;;;;14.38;2.13;;;11.00;1.00;;;;;;5023737;28;20582;-86
2024/03/24 11:35:28;;;;;;;16.50;2.60;;;11.10;1.00;;;;;;5023858;28;20233;-86
2024/03/24 11:37:57;;;;;;;16.85;1.80;;;11.10;1.00;;;;;;5040883;28;20193;-86
2024/03/24 11:40:27;;;;;;;14.93;2.25;;;11.10;1.00;;;;;;5040689;28;20168;-86
2024/03/24 11:42:55;;;;;;;13.82;2.20;;;11.00;1.00;;;;;;5041324;28;20189;-85
2024/03/24 11:45:29;;;;;;;19.92;2.47;;;10.70;1.00;;;;;;5041352;28;20168;-87
2024/03/24 11:48:30;;;;;;;16.20;2.85;;;10.60;1.00;;;;;;5020187;28;20173;-84
2024/03/24 11:51:01;;;;;;;16.45;2.00;;;10.50;1.00;;;;;;4977566;28;20744;-85
2024/03/24 11:53:29;;;;;;;13.98;2.10;;;10.40;1.00;;;;;;5017943;28;20655;-85
2024/03/24 11:55:55;;;;;;;13.02;1.75;;;10.40;1.00;;;;;;5036289;28;20247;-83
2024/03/24 11:58:22;;;;;;;16.52;2.42;;;10.30;1.00;;;;;;5017903;28;20190;-84
2024/03/24 12:00:50;;;;;;;16.52;2.60;;;10.20;1.00;;;;;;5018294;28;20666;-85
2024/03/24 12:03:16;;;;;;;16.27;2.10;;;10.20;1.00;;;;;;5017576;28;20261;-85
2024/03/24 12:05:42;;;;;;;16.23;2.42;;;10.20;1.00;;;;;;5018403;28;20204;-86
2024/03/24 12:08:09;;;;;;;16.83;2.70;;;10.30;1.00;;;;;;5035151;28;20172;-86
2024/03/24 12:10:35;;;;;;;17.80;2.50;;;10.30;1.00;;;;;;5035198;28;20169;-85
2024/03/24 12:13:02;;;;;;;17.15;2.75;;;10.30;1.00;;;;;;5039246;28;20166;-85
2024/03/24 12:15:28;;;;;;;17.77;2.60;;;10.30;1.00;;;;;;5022296;28;20719;-86
2024/03/24 12:17:53;;;;;;;17.23;2.90;;;10.30;1.00;;;;;;5040238;28;20232;-86
2024/03/24 12:20:19;;;;;;;15.50;2.83;;;10.10;1.00;;;;;;5039749;28;20173;-85
2024/03/24 12:22:45;;;;;;;17.40;2.77;;;10.00;1.00;;;;;;5021340;28;20190;-86
2024/03/24 12:25:13;;;;;;;19.47;3.67;;;9.90;1.00;;;;;;5038495;28;20196;-85
2024/03/24 12:27:38;;;;;;;21.27;3.40;;;9.90;1.00;;;;;;5021052;28;20181;-85
2024/03/24 12:30:05;;;;;;;15.90;1.83;;;9.80;1.00;;;;;;5038911;28;20531;-85
2024/03/24 12:32:31;;;;;;;15.43;2.15;;;9.70;1.00;;;;;;5038210;28;20312;-84
2024/03/24 12:35:00;;;;;;;17.00;2.72;;;9.70;1.00;;;;;;5021149;28;20546;-85
2024/03/24 12:37:28;;;;;;;14.30;2.25;;;9.80;1.00;;;;;;5038721;28;20658;-83
2024/03/24 12:39:54;;;;;;;14.15;2.10;;;9.90;1.00;;;;;;5020824;28;20166;-84
2024/03/24 12:42:24;;;;;;;23.00;3.70;;;9.90;1.00;;;;;;5037946;28;20201;-85
2024/03/24 12:44:49;;;;;;;19.38;2.88;;;10.00;1.00;;;;;;5038532;28;20208;-84
2024/03/24 12:47:18;;;;;;;16.73;2.90;;;10.00;1.00;;;;;;5038458;28;20150;-85
2024/03/24 12:49:44;;;;;;;17.50;3.17;;;10.00;1.00;;;;;;5020736;28;20412;-85
2024/03/24 12:52:10;;;;;;;15.63;2.30;;;10.20;1.00;;;;;;5037946;28;20277;-84
2024/03/24 12:54:37;;;;;;;14.07;2.20;;;10.30;1.00;;;;;;5037812;28;20503;-85
2024/03/24 12:57:04;;;;;;;18.25;2.40;;;10.40;1.00;;;;;;5020213;28;20198;-84